sensor_id;sensor_type;location;lat;lon;timestamp;pressure;altitude;pressure_sealevel;temperature;humidity
50380;BME280;37474;59.468;18.040;2023-02-26T00:01:50;101211.16;;;-4.82;100.00
50380;BME280;37474;59.468;18.040;2023-02-26T00:04:18;101211.31;;;-4.72;100.00
50380;BME280;37474;59.468;18.040;2023-02-26T00:06:50;101215.63;;;-4.67;100.00
50380;BME280;37474;59.468;18.040;2023-02-26T00:09:23;101221.03;;;-4.48;100.00
50380;BME280;37474;59.468;18.040;2023-02-26T00:11:53;101222.84;;;-4.41;100.00
50380;BME280;37474;59.468;18.040;2023-02-26T00:14:23;101180.41;;;-4.56;100.00
50380;BME280;37474;59.468;18.040;2023-02-26T00:17:04;101230.72;;;-4.26;100.00
50380;BME280;37474;59.468;18.040;2023-02-26T00:19:37;101228.28;;;-4.20;100.00
50380;BME280;37474;59.468;18.040;2023-02-26T00:22:07;101235.91;;;-4.17;100.00
50380;BME280;37474;59.468;18.040;2023-02-26T00:24:36;101241.91;;;-4.12;100.00
50380;BME280;37474;59.468;18.040;2023-02-26T00:27:06;101242.75;;;-4.11;100.00
50380;BME280;37474;59.468;18.040;2023-02-26T00:29:38;101243.38;;;-4.25;100.00
50380;BME280;37474;59.468;18.040;2023-02-26T00:32:07;101241.59;;;-4.32;100.00
50380;BME280;37474;59.468;18.040;2023-02-26T00:34:40;101243.94;;;-4.41;100.00
50380;BME280;37474;59.468;18.040;2023-02-26T00:37:16;101224.41;;;-4.49;100.00
50380;BME280;37474;59.468;18.040;2023-02-26T00:39:58;101259.41;;;-4.26;100.00
50380;BME280;37474;59.468;18.040;2023-02-26T00:42:32;101212.34;;;-4.63;100.00
50380;BME280;37474;59.468;18.040;2023-02-26T00:45:04;101252.59;;;-4.28;100.00
50380;BME280;37474;59.468;18.040;2023-02-26T00:47:39;101256.78;;;-4.30;100.00
50380;BME280;37474;59.468;18.040;2023-02-26T00:50:17;101264.69;;;-4.13;100.00
50380;BME280;37474;59.468;18.040;2023-02-26T00:52:56;101253.41;;;-4.31;100.00
50380;BME280;37474;59.468;18.040;2023-02-26T00:55:32;101211.72;;;-4.51;100.00
50380;BME280;37474;59.468;18.040;2023-02-26T00:58:00;101254.28;;;-4.29;100.00
50380;BME280;37474;59.468;18.040;2023-02-26T01:00:29;101255.84;;;-4.37;100.00
50380;BME280;37474;59.468;18.040;2023-02-26T01:03:01;101249.94;;;-4.36;100.00
50380;BME280;37474;59.468;18.040;2023-02-26T01:05:30;101261.53;;;-4.48;100.00
50380;BME280;37474;59.468;18.040;2023-02-26T01:08:07;101257.16;;;-4.57;100.00
50380;BME280;37474;59.468;18.040;2023-02-26T01:10:41;101230.69;;;-4.73;100.00
50380;BME280;37474;59.468;18.040;2023-02-26T01:13:11;101257.09;;;-5.02;100.00
50380;BME280;37474;59.468;18.040;2023-02-26T01:15:46;101221.78;;;-5.39;100.00
50380;BME280;37474;59.468;18.040;2023-02-26T01:18:22;101254.72;;;-4.95;100.00
50380;BME280;37474;59.468;18.040;2023-02-26T01:20:55;101230.50;;;-5.26;100.00
50380;BME280;37474;59.468;18.040;2023-02-26T01:23:30;101262.63;;;-5.20;100.00
50380;BME280;37474;59.468;18.040;2023-02-26T01:26:04;101272.31;;;-5.39;100.00
50380;BME280;37474;59.468;18.040;2023-02-26T01:28:36;101269.19;;;-5.28;100.00
50380;BME280;37474;59.468;18.040;2023-02-26T01:31:11;101282.88;;;-5.19;100.00
50380;BME280;37474;59.468;18.040;2023-02-26T01:33:46;101288.03;;;-5.16;100.00
50380;BME280;37474;59.468;18.040;2023-02-26T01:36:19;101295.53;;;-5.19;100.00
50380;BME280;37474;59.468;18.040;2023-02-26T01:38:56;101292.59;;;-4.99;100.00
50380;BME280;37474;59.468;18.040;2023-02-26T01:41:30;101305.28;;;-4.95;100.00
50380;BME280;37474;59.468;18.040;2023-02-26T01:44:08;101307.38;;;-4.77;100.00
50380;BME280;37474;59.468;18.040;2023-02-26T01:46:53;101309.28;;;-4.65;100.00
50380;BME280;37474;59.468;18.040;2023-02-26T01:49:27;101315.53;;;-4.48;100.00
50380;BME280;37474;59.468;18.040;2023-02-26T01:51:58;101320.00;;;-4.35;100.00
50380;BME280;37474;59.468;18.040;2023-02-26T01:54:29;101305.75;;;-4.28;100.00
50380;BME280;37474;59.468;18.040;2023-02-26T01:57:04;101314.66;;;-4.05;100.00
50380;BME280;37474;59.468;18.040;2023-02-26T01:59:36;101318.13;;;-4.00;100.00
50380;BME280;37474;59.468;18.040;2023-02-26T02:02:11;101311.41;;;-3.94;100.00
50380;BME280;37474;59.468;18.040;2023-02-26T02:04:41;101323.38;;;-3.87;100.00
50380;BME280;37474;59.468;18.040;2023-02-26T02:07:12;101320.88;;;-3.86;100.00
50380;BME280;37474;59.468;18.040;2023-02-26T02:09:41;101314.13;;;-3.84;100.00
50380;BME280;37474;59.468;18.040;2023-02-26T02:12:20;101324.25;;;-3.84;100.00
50380;BME280;37474;59.468;18.040;2023-02-26T02:14:58;101292.63;;;-4.07;100.00
50380;BME280;37474;59.468;18.040;2023-02-26T02:17:40;101292.63;;;-4.09;100.00
50380;BME280;37474;59.468;18.040;2023-02-26T02:20:38;101326.41;;;-4.07;100.00
50380;BME280;37474;59.468;18.040;2023-02-26T02:23:14;101293.91;;;-4.32;100.00
50380;BME280;37474;59.468;18.040;2023-02-26T02:31:59;101331.38;;;-4.13;100.00
50380;BME280;37474;59.468;18.040;2023-02-26T02:34:36;101361.56;;;-4.22;100.00
50380;BME280;37474;59.468;18.040;2023-02-26T02:37:12;101364.94;;;-4.23;100.00
50380;BME280;37474;59.468;18.040;2023-02-26T02:39:46;101365.09;;;-4.15;100.00
50380;BME280;37474;59.468;18.040;2023-02-26T02:42:24;101372.56;;;-4.21;100.00
50380;BME280;37474;59.468;18.040;2023-02-26T02:44:57;101317.97;;;-4.53;100.00
50380;BME280;37474;59.468;18.040;2023-02-26T02:47:31;101378.53;;;-4.18;100.00
50380;BME280;37474;59.468;18.040;2023-02-26T02:50:07;101368.09;;;-4.33;100.00
50380;BME280;37474;59.468;18.040;2023-02-26T02:52:42;101325.53;;;-4.54;100.00
50380;BME280;37474;59.468;18.040;2023-02-26T02:55:17;101378.59;;;-4.57;100.00
50380;BME280;37474;59.468;18.040;2023-02-26T02:57:52;101335.25;;;-4.74;100.00
50380;BME280;37474;59.468;18.040;2023-02-26T03:00:28;101350.28;;;-4.80;100.00
50380;BME280;37474;59.468;18.040;2023-02-26T03:03:05;101396.91;;;-4.69;100.00
50380;BME280;37474;59.468;18.040;2023-02-26T03:05:37;101391.75;;;-4.73;100.00
50380;BME280;37474;59.468;18.040;2023-02-26T03:08:09;101396.03;;;-4.71;100.00
50380;BME280;37474;59.468;18.040;2023-02-26T03:10:41;101393.78;;;-4.96;100.00
50380;BME280;37474;59.468;18.040;2023-02-26T03:13:15;101397.25;;;-4.91;100.00
50380;BME280;37474;59.468;18.040;2023-02-26T03:15:52;101357.16;;;-5.14;100.00
50380;BME280;37474;59.468;18.040;2023-02-26T03:18:33;101323.53;;;-5.47;100.00
50380;BME280;37474;59.468;18.040;2023-02-26T03:21:09;101390.50;;;-4.92;100.00
50380;BME280;37474;59.468;18.040;2023-02-26T03:23:45;101398.47;;;-5.12;100.00
50380;BME280;37474;59.468;18.040;2023-02-26T03:26:22;101389.16;;;-5.14;100.00
50380;BME280;37474;59.468;18.040;2023-02-26T03:28:56;101395.16;;;-5.11;100.00
50380;BME280;37474;59.468;18.040;2023-02-26T03:31:32;101404.44;;;-5.10;100.00
50380;BME280;37474;59.468;18.040;2023-02-26T03:34:08;101372.59;;;-5.38;100.00
50380;BME280;37474;59.468;18.040;2023-02-26T03:36:43;101410.00;;;-5.23;100.00
50380;BME280;37474;59.468;18.040;2023-02-26T03:39:18;101410.94;;;-5.19;100.00
50380;BME280;37474;59.468;18.040;2023-02-26T03:41:53;101385.97;;;-5.43;100.00
50380;BME280;37474;59.468;18.040;2023-02-26T03:44:29;101369.03;;;-5.46;100.00
50380;BME280;37474;59.468;18.040;2023-02-26T03:47:04;101417.41;;;-5.32;100.00
50380;BME280;37474;59.468;18.040;2023-02-26T03:49:40;101429.53;;;-5.17;100.00
50380;BME280;37474;59.468;18.040;2023-02-26T03:52:10;101428.66;;;-5.18;100.00
50380;BME280;37474;59.468;18.040;2023-02-26T03:54:42;101425.31;;;-5.17;100.00
50380;BME280;37474;59.468;18.040;2023-02-26T03:57:14;101410.00;;;-5.23;100.00
50380;BME280;37474;59.468;18.040;2023-02-26T03:59:44;101379.34;;;-5.38;100.00
50380;BME280;37474;59.468;18.040;2023-02-26T04:02:13;101424.59;;;-5.13;100.00
50380;BME280;37474;59.468;18.040;2023-02-26T04:04:47;101426.13;;;-5.19;100.00
50380;BME280;37474;59.468;18.040;2023-02-26T04:07:18;101391.75;;;-5.47;100.00
50380;BME280;37474;59.468;18.040;2023-02-26T04:09:50;101428.91;;;-5.09;100.00
50380;BME280;37474;59.468;18.040;2023-02-26T04:12:20;101390.06;;;-5.47;100.00
50380;BME280;37474;59.468;18.040;2023-02-26T04:14:53;101393.41;;;-5.48;100.00
50380;BME280;37474;59.468;18.040;2023-02-26T04:17:23;101402.19;;;-5.67;100.00
50380;BME280;37474;59.468;18.040;2023-02-26T04:19:52;101434.16;;;-5.34;100.00
50380;BME280;37474;59.468;18.040;2023-02-26T04:22:20;101442.44;;;-5.41;100.00
50380;BME280;37474;59.468;18.040;2023-02-26T04:24:50;101415.88;;;-5.59;100.00
50380;BME280;37474;59.468;18.040;2023-02-26T04:27:18;101443.25;;;-5.42;100.00
50380;BME280;37474;59.468;18.040;2023-02-26T04:29:48;101440.50;;;-5.50;100.00
50380;BME280;37474;59.468;18.040;2023-02-26T04:32:20;101439.38;;;-5.28;100.00
50380;BME280;37474;59.468;18.040;2023-02-26T04:34:47;101453.56;;;-5.33;100.00
50380;BME280;37474;59.468;18.040;2023-02-26T04:37:17;101453.78;;;-5.59;100.00
50380;BME280;37474;59.468;18.040;2023-02-26T04:39:46;101451.38;;;-5.54;100.00
50380;BME280;37474;59.468;18.040;2023-02-26T04:42:14;101443.97;;;-5.46;100.00
50380;BME280;37474;59.468;18.040;2023-02-26T04:44:42;101450.94;;;-5.38;100.00
50380;BME280;37474;59.468;18.040;2023-02-26T04:47:12;101445.75;;;-5.44;100.00
50380;BME280;37474;59.468;18.040;2023-02-26T04:49:40;101440.88;;;-5.36;100.00
50380;BME280;37474;59.468;18.040;2023-02-26T04:52:09;101445.03;;;-5.38;100.00
50380;BME280;37474;59.468;18.040;2023-02-26T04:54:54;101430.09;;;-5.29;100.00
50380;BME280;37474;59.468;18.040;2023-02-26T04:57:24;101440.56;;;-5.14;100.00
50380;BME280;37474;59.468;18.040;2023-02-26T04:59:52;101439.63;;;-5.17;100.00
50380;BME280;37474;59.468;18.040;2023-02-26T05:02:22;101437.78;;;-5.24;100.00
50380;BME280;37474;59.468;18.040;2023-02-26T05:04:52;101421.38;;;-5.40;100.00
50380;BME280;37474;59.468;18.040;2023-02-26T05:07:19;101453.34;;;-5.42;100.00
50380;BME280;37474;59.468;18.040;2023-02-26T05:09:49;101458.59;;;-5.35;100.00
50380;BME280;37474;59.468;18.040;2023-02-26T05:12:20;101464.66;;;-5.28;100.00
50380;BME280;37474;59.468;18.040;2023-02-26T05:14:48;101466.38;;;-5.27;100.00
50380;BME280;37474;59.468;18.040;2023-02-26T05:17:18;101471.00;;;-5.11;100.00
50380;BME280;37474;59.468;18.040;2023-02-26T05:19:57;101456.31;;;-5.24;100.00
50380;BME280;37474;59.468;18.040;2023-02-26T05:22:27;101431.63;;;-5.36;100.00
50380;BME280;37474;59.468;18.040;2023-02-26T05:24:56;101476.91;;;-5.10;100.00
50380;BME280;37474;59.468;18.040;2023-02-26T05:27:25;101480.34;;;-5.07;100.00
50380;BME280;37474;59.468;18.040;2023-02-26T05:29:55;101450.53;;;-5.20;100.00
50380;BME280;37474;59.468;18.040;2023-02-26T05:32:26;101479.78;;;-4.95;100.00
50380;BME280;37474;59.468;18.040;2023-02-26T05:34:54;101478.59;;;-5.09;100.00
50380;BME280;37474;59.468;18.040;2023-02-26T05:37:22;101485.03;;;-4.87;100.00
50380;BME280;37474;59.468;18.040;2023-02-26T05:39:51;101491.53;;;-4.97;100.00
50380;BME280;37474;59.468;18.040;2023-02-26T05:42:19;101461.09;;;-5.00;100.00
50380;BME280;37474;59.468;18.040;2023-02-26T05:44:50;101495.91;;;-4.90;100.00
50380;BME280;37474;59.468;18.040;2023-02-26T05:47:18;101459.25;;;-5.07;100.00
50380;BME280;37474;59.468;18.040;2023-02-26T05:49:48;101496.16;;;-4.81;100.00
50380;BME280;37474;59.468;18.040;2023-02-26T05:52:16;101473.94;;;-4.94;100.00
50380;BME280;37474;59.468;18.040;2023-02-26T05:54:46;101504.56;;;-4.82;100.00
50380;BME280;37474;59.468;18.040;2023-02-26T05:57:15;101478.06;;;-4.96;100.00
50380;BME280;37474;59.468;18.040;2023-02-26T05:59:43;101473.13;;;-4.91;100.00
50380;BME280;37474;59.468;18.040;2023-02-26T06:02:25;101506.88;;;-4.89;100.00
50380;BME280;37474;59.468;18.040;2023-02-26T06:04:55;101479.53;;;-5.06;100.00
50380;BME280;37474;59.468;18.040;2023-02-26T06:07:25;101515.59;;;-4.78;100.00
50380;BME280;37474;59.468;18.040;2023-02-26T06:09:53;101511.47;;;-4.74;100.00
50380;BME280;37474;59.468;18.040;2023-02-26T06:12:23;101513.59;;;-4.91;100.00
50380;BME280;37474;59.468;18.040;2023-02-26T06:14:53;101521.28;;;-4.88;100.00
50380;BME280;37474;59.468;18.040;2023-02-26T06:17:20;101525.28;;;-4.95;100.00
50380;BME280;37474;59.468;18.040;2023-02-26T06:19:52;101521.16;;;-4.93;100.00
50380;BME280;37474;59.468;18.040;2023-02-26T06:22:27;101536.44;;;-4.88;100.00
50380;BME280;37474;59.468;18.040;2023-02-26T06:24:57;101533.81;;;-4.91;100.00
50380;BME280;37474;59.468;18.040;2023-02-26T06:27:25;101511.22;;;-5.20;100.00
50380;BME280;37474;59.468;18.040;2023-02-26T06:29:55;101527.34;;;-5.15;100.00
50380;BME280;37474;59.468;18.040;2023-02-26T06:32:27;101531.13;;;-4.99;100.00
50380;BME280;37474;59.468;18.040;2023-02-26T06:34:59;101538.63;;;-5.02;100.00
50380;BME280;37474;59.468;18.040;2023-02-26T06:37:26;101523.81;;;-5.21;100.00
50380;BME280;37474;59.468;18.040;2023-02-26T06:39:54;101513.03;;;-5.14;100.00
50380;BME280;37474;59.468;18.040;2023-02-26T06:42:26;101556.19;;;-5.07;100.00
50380;BME280;37474;59.468;18.040;2023-02-26T06:44:54;101528.16;;;-5.16;100.00
50380;BME280;37474;59.468;18.040;2023-02-26T06:47:22;101565.19;;;-4.85;100.00
50380;BME280;37474;59.468;18.040;2023-02-26T06:49:54;101565.13;;;-4.88;100.00
50380;BME280;37474;59.468;18.040;2023-02-26T06:52:23;101514.56;;;-5.21;100.00
50380;BME280;37474;59.468;18.040;2023-02-26T06:54:51;101563.50;;;-4.84;100.00
50380;BME280;37474;59.468;18.040;2023-02-26T06:57:29;101541.56;;;-4.85;100.00
50380;BME280;37474;59.468;18.040;2023-02-26T06:59:57;101540.69;;;-4.87;100.00
50380;BME280;37474;59.468;18.040;2023-02-26T07:02:28;101583.41;;;-4.63;100.00
50380;BME280;37474;59.468;18.040;2023-02-26T07:04:58;101588.69;;;-4.54;100.00
50380;BME280;37474;59.468;18.040;2023-02-26T07:07:27;101534.72;;;-4.89;100.00
50380;BME280;37474;59.468;18.040;2023-02-26T07:09:55;101584.16;;;-4.67;100.00
50380;BME280;37474;59.468;18.040;2023-02-26T07:12:25;101582.47;;;-4.67;100.00
50380;BME280;37474;59.468;18.040;2023-02-26T07:14:56;101587.06;;;-4.51;100.00
50380;BME280;37474;59.468;18.040;2023-02-26T07:17:26;101582.28;;;-4.40;100.00
50380;BME280;37474;59.468;18.040;2023-02-26T07:19:56;101581.81;;;-4.22;99.50
50380;BME280;37474;59.468;18.040;2023-02-26T07:22:27;101562.34;;;-4.26;98.71
50380;BME280;37474;59.468;18.040;2023-02-26T07:24:57;101589.78;;;-4.07;97.98
50380;BME280;37474;59.468;18.040;2023-02-26T07:27:25;101593.22;;;-4.05;97.45
50380;BME280;37474;59.468;18.040;2023-02-26T07:29:57;101589.75;;;-4.08;97.91
50380;BME280;37474;59.468;18.040;2023-02-26T07:32:27;101590.63;;;-4.06;97.75
50380;BME280;37474;59.468;18.040;2023-02-26T07:34:55;101611.13;;;-3.95;97.58
50380;BME280;37474;59.468;18.040;2023-02-26T07:37:28;101603.41;;;-4.02;98.13
50380;BME280;37474;59.468;18.040;2023-02-26T07:39:58;101597.50;;;-4.01;98.08
50380;BME280;37474;59.468;18.040;2023-02-26T07:42:26;101603.41;;;-4.02;98.33
50380;BME280;37474;59.468;18.040;2023-02-26T07:45:11;101563.00;;;-4.35;98.97
50380;BME280;37474;59.468;18.040;2023-02-26T07:47:41;101609.03;;;-4.15;99.83
50380;BME280;37474;59.468;18.040;2023-02-26T07:50:10;101608.09;;;-4.17;99.89
50380;BME280;37474;59.468;18.040;2023-02-26T07:52:41;101591.91;;;-4.25;99.84
50380;BME280;37474;59.468;18.040;2023-02-26T07:55:11;101622.91;;;-3.97;99.31
50380;BME280;37474;59.468;18.040;2023-02-26T07:57:39;101633.44;;;-3.79;98.55
50380;BME280;37474;59.468;18.040;2023-02-26T08:00:10;101629.19;;;-3.82;99.21
50380;BME280;37474;59.468;18.040;2023-02-26T08:02:39;101624.41;;;-3.66;98.71
50380;BME280;37474;59.468;18.040;2023-02-26T08:05:07;101631.59;;;-3.47;97.79
50380;BME280;37474;59.468;18.040;2023-02-26T08:07:37;101641.09;;;-3.37;96.94
50380;BME280;37474;59.468;18.040;2023-02-26T08:10:08;101645.97;;;-3.46;97.77
50380;BME280;37474;59.468;18.040;2023-02-26T08:12:39;101643.97;;;-3.20;97.65
50380;BME280;37474;59.468;18.040;2023-02-26T08:15:10;101630.38;;;-3.22;97.07
50380;BME280;37474;59.468;18.040;2023-02-26T08:17:39;101652.13;;;-2.91;96.86
50380;BME280;37474;59.468;18.040;2023-02-26T08:20:11;101636.97;;;-2.86;96.18
50380;BME280;37474;59.468;18.040;2023-02-26T08:22:45;101601.38;;;-2.89;96.21
50380;BME280;37474;59.468;18.040;2023-02-26T08:25:17;101615.16;;;-2.77;95.45
50380;BME280;37474;59.468;18.040;2023-02-26T08:27:47;101658.03;;;-2.44;95.47
50380;BME280;37474;59.468;18.040;2023-02-26T08:30:18;101653.94;;;-2.35;94.76
50380;BME280;37474;59.468;18.040;2023-02-26T08:32:46;101652.03;;;-2.47;95.14
50380;BME280;37474;59.468;18.040;2023-02-26T08:35:15;101650.66;;;-2.28;93.99
50380;BME280;37474;59.468;18.040;2023-02-26T08:37:43;101663.97;;;-2.43;93.87
50380;BME280;37474;59.468;18.040;2023-02-26T08:40:12;101668.03;;;-2.53;94.32
50380;BME280;37474;59.468;18.040;2023-02-26T08:42:43;101660.31;;;-2.59;94.91
50380;BME280;37474;59.468;18.040;2023-02-26T08:45:11;101669.16;;;-2.35;94.33
50380;BME280;37474;59.468;18.040;2023-02-26T08:47:39;101658.16;;;-2.36;94.85
50380;BME280;37474;59.468;18.040;2023-02-26T08:50:24;101659.81;;;-2.38;94.85
50380;BME280;37474;59.468;18.040;2023-02-26T08:52:55;101642.72;;;-2.50;95.04
50380;BME280;37474;59.468;18.040;2023-02-26T08:55:24;101672.78;;;-2.21;95.16
50380;BME280;37474;59.468;18.040;2023-02-26T08:57:54;101672.19;;;-2.05;94.18
50380;BME280;37474;59.468;18.040;2023-02-26T09:00:24;101676.69;;;-1.89;93.86
50380;BME280;37474;59.468;18.040;2023-02-26T09:02:53;101678.22;;;-2.00;94.12
50380;BME280;37474;59.468;18.040;2023-02-26T09:05:21;101674.75;;;-2.05;95.52
50380;BME280;37474;59.468;18.040;2023-02-26T09:07:51;101693.66;;;-1.84;95.13
50380;BME280;37474;59.468;18.040;2023-02-26T09:10:21;101690.03;;;-1.41;92.45
50380;BME280;37474;59.468;18.040;2023-02-26T09:12:49;101696.53;;;-1.63;92.77
50380;BME280;37474;59.468;18.040;2023-02-26T09:15:21;101689.41;;;-1.25;92.79
50380;BME280;37474;59.468;18.040;2023-02-26T09:17:55;101689.34;;;-1.29;92.91
50380;BME280;37474;59.468;18.040;2023-02-26T09:20:25;101697.97;;;-1.17;92.01
50380;BME280;37474;59.468;18.040;2023-02-26T09:23:04;101661.34;;;-1.29;91.36
50380;BME280;37474;59.468;18.040;2023-02-26T09:25:34;101699.78;;;-1.07;91.75
50380;BME280;37474;59.468;18.040;2023-02-26T09:28:04;101685.88;;;-1.36;92.24
50380;BME280;37474;59.468;18.040;2023-02-26T09:30:34;101712.63;;;-0.96;91.59
50380;BME280;37474;59.468;18.040;2023-02-26T09:33:02;101714.25;;;-1.04;91.41
50380;BME280;37474;59.468;18.040;2023-02-26T09:35:30;101709.44;;;-0.81;90.92
50380;BME280;37474;59.468;18.040;2023-02-26T09:37:57;101671.00;;;-1.01;91.07
50380;BME280;37474;59.468;18.040;2023-02-26T09:40:35;101715.47;;;-0.71;89.36
50380;BME280;37474;59.468;18.040;2023-02-26T09:43:18;101716.28;;;-0.75;91.42
50380;BME280;37474;59.468;18.040;2023-02-26T09:45:54;101713.06;;;-0.56;89.72
50380;BME280;37474;59.468;18.040;2023-02-26T09:48:26;101711.97;;;-0.81;89.58
50380;BME280;37474;59.468;18.040;2023-02-26T09:50:56;101657.53;;;-0.94;89.34
50380;BME280;37474;59.468;18.040;2023-02-26T09:53:27;101720.91;;;-0.38;89.08
50380;BME280;37474;59.468;18.040;2023-02-26T09:56:13;101721.06;;;-0.19;86.96
50380;BME280;37474;59.468;18.040;2023-02-26T09:58:43;101726.09;;;-0.27;87.62
50380;BME280;37474;59.468;18.040;2023-02-26T10:01:30;101724.34;;;-0.33;87.76
50380;BME280;37474;59.468;18.040;2023-02-26T10:04:05;101727.44;;;-0.64;89.05
50380;BME280;37474;59.468;18.040;2023-02-26T10:07:00;101734.44;;;-0.43;88.76
50380;BME280;37474;59.468;18.040;2023-02-26T10:09:40;101736.00;;;-0.56;89.49
50380;BME280;37474;59.468;18.040;2023-02-26T10:12:17;101733.75;;;-0.27;88.10
50380;BME280;37474;59.468;18.040;2023-02-26T10:14:49;101735.69;;;0.05;86.31
50380;BME280;37474;59.468;18.040;2023-02-26T10:17:29;101739.94;;;0.04;86.88
50380;BME280;37474;59.468;18.040;2023-02-26T10:20:05;101745.88;;;0.00;87.83
50380;BME280;37474;59.468;18.040;2023-02-26T10:22:43;101735.34;;;-0.34;87.71
50380;BME280;37474;59.468;18.040;2023-02-26T10:25:18;101704.72;;;-0.43;87.93
50380;BME280;37474;59.468;18.040;2023-02-26T10:27:52;101746.59;;;-0.12;88.12
50380;BME280;37474;59.468;18.040;2023-02-26T10:30:31;101750.84;;;-0.15;88.24
50380;BME280;37474;59.468;18.040;2023-02-26T10:33:12;101755.25;;;0.04;86.98
50380;BME280;37474;59.468;18.040;2023-02-26T10:35:46;101751.06;;;0.15;87.13
50380;BME280;37474;59.468;18.040;2023-02-26T10:38:24;101756.38;;;0.41;86.04
50380;BME280;37474;59.468;18.040;2023-02-26T10:40:54;101755.66;;;0.62;83.68
50380;BME280;37474;59.468;18.040;2023-02-26T10:43:28;101755.56;;;0.50;85.58
50380;BME280;37474;59.468;18.040;2023-02-26T10:46:15;101764.09;;;0.52;84.87
50380;BME280;37474;59.468;18.040;2023-02-26T10:49:12;101774.13;;;0.24;86.63
50380;BME280;37474;59.468;18.040;2023-02-26T10:51:45;101775.09;;;0.43;86.06
50380;BME280;37474;59.468;18.040;2023-02-26T10:54:20;101776.66;;;0.24;87.85
50380;BME280;37474;59.468;18.040;2023-02-26T10:56:48;101783.59;;;0.41;85.85
50380;BME280;37474;59.468;18.040;2023-02-26T10:59:16;101784.44;;;0.41;86.96
50380;BME280;37474;59.468;18.040;2023-02-26T11:01:44;101752.91;;;0.29;85.88
50380;BME280;37474;59.468;18.040;2023-02-26T11:04:17;101789.59;;;0.46;86.67
50380;BME280;37474;59.468;18.040;2023-02-26T11:06:52;101787.97;;;0.60;86.16
50380;BME280;37474;59.468;18.040;2023-02-26T11:09:24;101778.59;;;0.59;83.88
50380;BME280;37474;59.468;18.040;2023-02-26T11:12:00;101792.25;;;0.63;84.06
50380;BME280;37474;59.468;18.040;2023-02-26T11:14:31;101786.22;;;0.53;85.21
50380;BME280;37474;59.468;18.040;2023-02-26T11:17:06;101755.56;;;0.50;84.64
50380;BME280;37474;59.468;18.040;2023-02-26T11:20:03;101780.59;;;1.14;83.54
50380;BME280;37474;59.468;18.040;2023-02-26T11:22:36;101777.22;;;1.18;83.24
50380;BME280;37474;59.468;18.040;2023-02-26T11:25:12;101781.34;;;0.90;82.75
50380;BME280;37474;59.468;18.040;2023-02-26T11:27:57;101780.47;;;0.86;83.94
50380;BME280;37474;59.468;18.040;2023-02-26T11:30:32;101778.09;;;1.30;81.81
50380;BME280;37474;59.468;18.040;2023-02-26T11:33:15;101784.09;;;1.37;81.22
50380;BME280;37474;59.468;18.040;2023-02-26T11:35:45;101755.06;;;1.14;80.69
50380;BME280;37474;59.468;18.040;2023-02-26T11:38:18;101753.22;;;0.88;81.19
50380;BME280;37474;59.468;18.040;2023-02-26T11:40:52;101794.94;;;0.89;81.90
50380;BME280;37474;59.468;18.040;2023-02-26T11:43:25;101788.00;;;0.66;83.44
50380;BME280;37474;59.468;18.040;2023-02-26T11:46:00;101793.19;;;0.78;83.78
50380;BME280;37474;59.468;18.040;2023-02-26T11:48:38;101794.19;;;1.10;82.68
50380;BME280;37474;59.468;18.040;2023-02-26T11:51:11;101806.06;;;0.95;82.56
50380;BME280;37474;59.468;18.040;2023-02-26T11:53:51;101811.13;;;0.89;82.42
50380;BME280;37474;59.468;18.040;2023-02-26T11:56:25;101811.97;;;0.94;82.21
50380;BME280;37474;59.468;18.040;2023-02-26T11:58:57;101807.78;;;1.02;82.04
50380;BME280;37474;59.468;18.040;2023-02-26T12:01:28;101818.00;;;1.02;81.29
50380;BME280;37474;59.468;18.040;2023-02-26T12:04:01;101800.84;;;0.80;81.92
50380;BME280;37474;59.468;18.040;2023-02-26T12:06:30;101807.75;;;0.96;80.08
50380;BME280;37474;59.468;18.040;2023-02-26T12:08:58;101821.44;;;1.11;82.32
50380;BME280;37474;59.468;18.040;2023-02-26T12:11:39;101820.59;;;1.16;81.75
50380;BME280;37474;59.468;18.040;2023-02-26T12:14:31;101823.13;;;1.07;80.80
50380;BME280;37474;59.468;18.040;2023-02-26T12:17:10;101820.59;;;1.13;80.16
50380;BME280;37474;59.468;18.040;2023-02-26T12:19:46;101814.41;;;0.71;82.03
50380;BME280;37474;59.468;18.040;2023-02-26T12:22:29;101807.59;;;0.70;80.95
50380;BME280;37474;59.468;18.040;2023-02-26T12:25:31;101834.09;;;0.94;77.83
50380;BME280;37474;59.468;18.040;2023-02-26T12:28:24;101835.88;;;1.04;75.44
50380;BME280;37474;59.468;18.040;2023-02-26T12:31:26;101830.69;;;0.92;75.94
50380;BME280;37474;59.468;18.040;2023-02-26T12:34:11;101835.00;;;0.97;74.63
50380;BME280;37474;59.468;18.040;2023-02-26T12:36:54;101836.69;;;0.97;74.92
50380;BME280;37474;59.468;18.040;2023-02-26T12:39:37;101835.84;;;0.96;75.75
50380;BME280;37474;59.468;18.040;2023-02-26T12:42:24;101834.97;;;0.94;76.64
50380;BME280;37474;59.468;18.040;2023-02-26T12:45:10;101840.94;;;0.95;77.19
50380;BME280;37474;59.468;18.040;2023-02-26T12:47:51;101848.53;;;0.84;77.56
50380;BME280;37474;59.468;18.040;2023-02-26T12:50:37;101828.69;;;0.49;78.60
50380;BME280;37474;59.468;18.040;2023-02-26T12:53:32;101827.09;;;0.61;81.15
50380;BME280;37474;59.468;18.040;2023-02-26T12:56:21;101809.28;;;0.68;80.43
50380;BME280;37474;59.468;18.040;2023-02-26T12:59:10;101815.22;;;0.64;80.76
50380;BME280;37474;59.468;18.040;2023-02-26T13:01:52;101846.84;;;0.85;81.57
50380;BME280;37474;59.468;18.040;2023-02-26T13:04:48;101853.69;;;0.90;81.23
50380;BME280;37474;59.468;18.040;2023-02-26T13:07:40;101847.72;;;0.90;80.31
50380;BME280;37474;59.468;18.040;2023-02-26T13:10:23;101852.94;;;1.10;80.96
50380;BME280;37474;59.468;18.040;2023-02-26T13:13:08;101848.69;;;1.12;79.90
50380;BME280;37474;59.468;18.040;2023-02-26T13:15:55;101820.44;;;0.79;80.83